Time;durP1;ratioP1;P1;durP2;ratioP2;P2;SDS_P1;SDS_P2;PMS_P1;PMS_P2;Temp;Humidity;BMP_temperature;BMP_pressure;BME280_temperature;BME280_humidity;BME280_pressure;Samples;Min_cycle;Max_cycle;Signal;HPM_P1;HPM_P2
2024/04/25 00:00:54;;;;;;;5.60;2.63;;;8.30;99.60;;;;;;5525038;25;20887;-56
2024/04/25 00:03:25;;;;;;;5.00;2.50;;;8.20;99.60;;;;;;5525079;25;20450;-56
2024/04/25 00:05:54;;;;;;;4.03;2.80;;;8.20;99.70;;;;;;5525329;25;20453;-56
2024/04/25 00:08:22;;;;;;;6.77;2.63;;;8.20;99.70;;;;;;5525327;25;20583;-56
2024/04/25 00:10:53;;;;;;;6.70;2.53;;;8.20;99.80;;;;;;5524467;25;20447;-56
2024/04/25 00:13:25;;;;;;;4.83;2.90;;;8.10;99.70;;;;;;5525051;25;20561;-56
2024/04/25 00:15:54;;;;;;;5.30;4.80;;;8.10;99.80;;;;;;5524536;25;20580;-56
2024/04/25 00:18:26;;;;;;;8.93;3.00;;;8.10;99.90;;;;;;5525715;25;20466;-56
2024/04/25 00:20:54;;;;;;;3.60;2.20;;;8.00;99.90;;;;;;5528335;25;20462;-55
2024/04/25 00:23:23;;;;;;;8.00;3.13;;;8.10;99.90;;;;;;5528118;25;21011;-55
2024/04/25 00:25:51;;;;;;;3.53;2.60;;;8.10;99.90;;;;;;5528682;25;20566;-55
2024/04/25 00:28:20;;;;;;;3.77;2.43;;;8.10;99.90;;;;;;5527969;25;20449;-55
2024/04/25 00:30:50;;;;;;;5.33;2.67;;;8.10;99.90;;;;;;5527899;25;20912;-55
2024/04/25 00:33:19;;;;;;;5.60;2.90;;;8.10;99.90;;;;;;5528216;25;20494;-55
2024/04/25 00:35:50;;;;;;;6.10;2.47;;;8.10;99.90;;;;;;5528129;25;20442;-56
2024/04/25 00:38:19;;;;;;;14.50;3.00;;;8.10;99.90;;;;;;5527975;25;20505;-56
2024/04/25 00:40:49;;;;;;;5.70;2.47;;;8.10;99.90;;;;;;5526880;25;20450;-56
2024/04/25 00:43:17;;;;;;;6.43;3.80;;;8.00;99.90;;;;;;5527759;25;20450;-56
2024/04/25 00:45:46;;;;;;;6.70;3.63;;;8.00;99.90;;;;;;5527875;25;20454;-56
2024/04/25 00:48:15;;;;;;;9.43;3.97;;;8.00;99.90;;;;;;5527740;25;20501;-56
2024/04/25 00:50:44;;;;;;;7.30;2.97;;;8.00;99.90;;;;;;5526771;25;20567;-56
2024/04/25 00:53:16;;;;;;;6.87;3.10;;;7.90;99.90;;;;;;5527258;25;20787;-56
2024/04/25 00:55:44;;;;;;;8.43;3.23;;;7.90;99.90;;;;;;5526992;25;20517;-56
2024/04/25 00:58:13;;;;;;;3.17;2.53;;;7.90;99.90;;;;;;5527174;25;20876;-56
2024/04/25 01:00:45;;;;;;;5.93;2.47;;;7.80;99.90;;;;;;5527473;25;20450;-55
2024/04/25 01:03:17;;;;;;;4.00;2.70;;;7.80;99.90;;;;;;5527993;25;20445;-55
2024/04/25 01:05:47;;;;;;;5.60;2.50;;;7.80;99.90;;;;;;5527359;25;20844;-56
2024/04/25 01:08:19;;;;;;;4.63;2.70;;;7.80;99.90;;;;;;5527502;25;20600;-56
2024/04/25 01:10:47;;;;;;;5.23;2.90;;;7.80;99.90;;;;;;5527218;25;20446;-56
2024/04/25 01:13:16;;;;;;;4.33;2.77;;;7.80;99.90;;;;;;5527842;25;20458;-56
2024/04/25 01:15:45;;;;;;;7.43;3.23;;;7.90;99.90;;;;;;5527177;25;20462;-56
2024/04/25 01:18:15;;;;;;;9.23;2.80;;;7.90;99.90;;;;;;5527171;25;20454;-56
2024/04/25 01:20:44;;;;;;;6.07;2.90;;;8.00;99.90;;;;;;5527090;25;20519;-56
2024/04/25 01:23:14;;;;;;;7.20;3.13;;;8.00;99.90;;;;;;5526698;25;20442;-56
2024/04/25 01:25:48;;;;;;;11.30;3.23;;;8.00;99.90;;;;;;5527380;25;20449;-56
2024/04/25 01:28:17;;;;;;;8.10;3.50;;;8.00;99.90;;;;;;5527284;25;20454;-56
2024/04/25 01:30:47;;;;;;;6.83;3.03;;;7.90;99.90;;;;;;5526765;25;20488;-56
2024/04/25 01:33:17;;;;;;;9.37;3.70;;;8.00;99.90;;;;;;5527725;25;20987;-56
2024/04/25 01:35:44;;;;;;;6.67;3.00;;;7.90;99.90;;;;;;5526869;25;20987;-56
2024/04/25 01:38:13;;;;;;;4.50;2.90;;;7.90;99.90;;;;;;5526465;25;20438;-56
2024/04/25 01:40:44;;;;;;;10.97;3.70;;;7.80;99.90;;;;;;5526785;25;20957;-56
2024/04/25 01:43:13;;;;;;;7.40;3.73;;;7.80;99.90;;;;;;5527110;25;20498;-56
2024/04/25 01:45:41;;;;;;;6.63;3.83;;;7.80;99.90;;;;;;5527232;25;20442;-56
2024/04/25 01:48:10;;;;;;;15.80;3.53;;;7.80;99.90;;;;;;5527367;25;20614;-56
2024/04/25 01:50:38;;;;;;;5.13;3.10;;;7.70;99.90;;;;;;5526900;25;20563;-56
2024/04/25 01:53:06;;;;;;;11.27;3.37;;;7.60;99.90;;;;;;5527068;25;20559;-56
2024/04/25 01:55:35;;;;;;;5.83;3.17;;;7.60;99.90;;;;;;5526955;25;20777;-56
2024/04/25 01:58:06;;;;;;;8.07;3.50;;;7.60;99.90;;;;;;5526746;25;20450;-56
2024/04/25 02:00:35;;;;;;;6.77;3.03;;;7.50;99.90;;;;;;5526781;25;20834;-56
2024/04/25 02:03:03;;;;;;;6.73;3.17;;;7.50;99.90;;;;;;5527181;25;20498;-56
2024/04/25 02:05:32;;;;;;;9.10;3.47;;;7.50;99.90;;;;;;5527045;25;20972;-56
2024/04/25 02:08:00;;;;;;;7.83;3.43;;;7.40;99.90;;;;;;5526717;25;20458;-55
2024/04/25 02:10:28;;;;;;;9.70;2.97;;;7.50;99.90;;;;;;5526719;25;20450;-57
2024/04/25 02:12:54;;;;;;;9.63;2.97;;;7.50;99.90;;;;;;5526414;25;20578;-56
2024/04/25 02:15:25;;;;;;;8.23;3.13;;;7.50;99.90;;;;;;5526929;25;20458;-56
2024/04/25 02:17:54;;;;;;;8.17;3.50;;;7.50;99.90;;;;;;5526448;25;20423;-56
2024/04/25 02:25:53;;;;;;;13.37;4.20;;;7.50;99.90;;;;;;5528952;26;20486;-56
2024/04/25 02:28:21;;;;;;;6.50;2.97;;;7.50;99.90;;;;;;5526108;25;20928;-56
2024/04/25 02:30:53;;;;;;;6.67;2.43;;;7.50;99.90;;;;;;5525677;25;20797;-56
2024/04/25 02:33:21;;;;;;;8.30;3.30;;;7.40;99.90;;;;;;5525940;25;20490;-56
2024/04/25 02:35:49;;;;;;;11.03;3.10;;;7.30;99.90;;;;;;5526044;25;20450;-56
2024/04/25 02:38:15;;;;;;;8.30;3.43;;;7.30;99.90;;;;;;5526137;25;20446;-56
2024/04/25 02:40:45;;;;;;;7.10;2.80;;;7.30;99.90;;;;;;5525052;25;20501;-56
2024/04/25 02:43:13;;;;;;;10.03;4.50;;;7.30;99.90;;;;;;5525612;25;20258;-56
2024/04/25 02:45:39;;;;;;;10.43;3.23;;;7.30;99.90;;;;;;5525890;25;20458;-56
2024/04/25 02:48:10;;;;;;;7.83;2.83;;;7.30;99.90;;;;;;5526348;25;20446;-56
2024/04/25 02:50:36;;;;;;;12.47;2.30;;;7.30;99.90;;;;;;5526162;25;20213;-56
2024/04/25 02:53:05;;;;;;;3.60;2.80;;;7.20;99.90;;;;;;5525984;25;20491;-56
2024/04/25 02:55:32;;;;;;;14.63;4.57;;;7.20;99.90;;;;;;5526265;25;20217;-56
2024/04/25 02:58:00;;;;;;;13.63;3.90;;;7.20;99.90;;;;;;5525829;25;20497;-56
2024/04/25 03:00:26;;;;;;;5.57;3.10;;;7.20;99.90;;;;;;5525704;25;20998;-56
2024/04/25 03:02:55;;;;;;;4.47;2.67;;;7.20;99.90;;;;;;5526022;25;20510;-56
2024/04/25 03:05:23;;;;;;;8.00;3.07;;;7.10;99.90;;;;;;5525438;25;20221;-56
2024/04/25 03:07:51;;;;;;;6.93;3.83;;;7.20;99.90;;;;;;5526194;25;20817;-56
2024/04/25 03:10:17;;;;;;;10.57;3.53;;;7.10;99.90;;;;;;5525181;25;20554;-56
2024/04/25 03:12:46;;;;;;;7.07;3.27;;;7.10;99.90;;;;;;5525378;25;20470;-56
2024/04/25 03:15:12;;;;;;;7.37;3.20;;;7.00;99.90;;;;;;5525120;25;20261;-56
2024/04/25 03:17:40;;;;;;;8.20;4.03;;;7.00;99.90;;;;;;5525489;25;21075;-56
2024/04/25 03:20:07;;;;;;;6.60;2.97;;;7.00;99.90;;;;;;5525097;25;20931;-56
2024/04/25 03:22:38;;;;;;;6.77;3.20;;;7.00;99.90;;;;;;5524806;25;20914;-56
2024/04/25 03:25:04;;;;;;;5.93;3.40;;;6.90;99.90;;;;;;5525940;25;20860;-57
2024/04/25 03:27:33;;;;;;;5.40;3.40;;;6.80;99.90;;;;;;5525534;25;20485;-56
2024/04/25 03:29:59;;;;;;;7.33;3.03;;;6.80;99.90;;;;;;5525429;25;20565;-56
2024/04/25 03:32:28;;;;;;;8.57;3.37;;;6.80;99.90;;;;;;5525157;25;20470;-56
2024/04/25 03:34:54;;;;;;;11.43;3.70;;;6.70;99.90;;;;;;5525692;25;20210;-56
2024/04/25 03:37:24;;;;;;;6.47;4.10;;;6.70;99.90;;;;;;5525176;25;20834;-56
2024/04/25 03:39:55;;;;;;;6.00;3.70;;;6.70;99.90;;;;;;5524825;25;20537;-56
2024/04/25 03:42:24;;;;;;;3.93;3.20;;;6.70;99.90;;;;;;5525133;25;20462;-56
2024/04/25 03:44:53;;;;;;;7.90;4.00;;;6.70;99.90;;;;;;5525299;25;20454;-56
2024/04/25 03:47:21;;;;;;;11.03;3.67;;;6.70;99.90;;;;;;5525164;25;20450;-56
2024/04/25 03:49:50;;;;;;;8.17;4.03;;;6.70;99.90;;;;;;5525352;25;20497;-56
2024/04/25 03:52:18;;;;;;;6.83;4.13;;;6.70;99.90;;;;;;5524846;25;20798;-56
2024/04/25 03:54:47;;;;;;;6.83;3.90;;;6.70;99.90;;;;;;5528934;25;20498;-57
2024/04/25 03:57:18;;;;;;;7.33;4.33;;;6.70;99.90;;;;;;5528185;25;20494;-56
2024/04/25 03:59:47;;;;;;;8.90;3.93;;;6.70;99.90;;;;;;5527855;25;20561;-56
2024/04/25 04:02:15;;;;;;;7.67;3.90;;;6.70;99.90;;;;;;5528348;25;20949;-56
2024/04/25 04:04:44;;;;;;;7.33;4.10;;;6.70;99.90;;;;;;5528227;25;20446;-56
2024/04/25 04:07:12;;;;;;;6.40;4.10;;;6.80;99.90;;;;;;5528066;25;20991;-57
2024/04/25 04:09:41;;;;;;;8.50;3.60;;;6.80;99.90;;;;;;5528964;25;20905;-56
2024/04/25 04:12:09;;;;;;;7.23;3.97;;;6.80;99.90;;;;;;5528834;25;20802;-56
2024/04/25 04:14:40;;;;;;;11.33;4.20;;;6.80;99.90;;;;;;5527256;25;20450;-56
2024/04/25 04:17:09;;;;;;;4.53;2.93;;;6.90;99.90;;;;;;5528181;25;20446;-56
2024/04/25 04:19:38;;;;;;;9.30;3.50;;;6.80;99.90;;;;;;5528282;25;20541;-56
2024/04/25 04:22:07;;;;;;;4.30;2.90;;;6.80;99.90;;;;;;5528052;25;20860;-56
2024/04/25 04:24:35;;;;;;;11.73;3.20;;;6.80;99.90;;;;;;5528353;25;20487;-56
2024/04/25 04:27:04;;;;;;;8.07;3.60;;;6.80;99.90;;;;;;5528079;25;20555;-56
2024/04/25 04:29:32;;;;;;;9.27;3.37;;;6.80;99.90;;;;;;5527549;25;21007;-56
2024/04/25 04:32:03;;;;;;;5.90;3.50;;;6.80;99.90;;;;;;5527226;25;20601;-56
2024/04/25 04:34:32;;;;;;;9.70;3.53;;;6.80;99.90;;;;;;5528468;25;20442;-56
2024/04/25 04:37:00;;;;;;;6.53;3.40;;;6.80;99.90;;;;;;5528423;25;20825;-56
2024/04/25 04:39:28;;;;;;;12.90;3.37;;;6.80;99.90;;;;;;5527734;25;20454;-56
2024/04/25 04:41:57;;;;;;;5.93;3.03;;;6.80;99.90;;;;;;5528280;25;20453;-56
2024/04/25 04:44:25;;;;;;;6.43;3.10;;;6.80;99.90;;;;;;5528206;25;20571;-56
2024/04/25 04:46:54;;;;;;;9.70;4.07;;;6.80;99.90;;;;;;5527760;25;20449;-56
2024/04/25 04:49:25;;;;;;;12.90;4.13;;;6.80;99.90;;;;;;5528260;25;20988;-55
2024/04/25 04:51:53;;;;;;;5.90;2.83;;;6.80;99.90;;;;;;5528264;25;20469;-56
2024/04/25 04:54:22;;;;;;;6.43;3.47;;;6.80;99.90;;;;;;5528483;25;20530;-56
2024/04/25 04:56:50;;;;;;;7.77;3.53;;;6.80;99.90;;;;;;5527781;25;20446;-56
2024/04/25 04:59:19;;;;;;;7.07;3.80;;;6.80;99.90;;;;;;5527830;25;20503;-56
2024/04/25 05:01:47;;;;;;;7.00;3.50;;;6.90;99.90;;;;;;5528242;25;20465;-56
2024/04/25 05:04:16;;;;;;;5.97;2.97;;;6.90;99.90;;;;;;5527610;25;20568;-56
2024/04/25 05:06:47;;;;;;;10.37;3.73;;;6.90;99.90;;;;;;5528483;25;20498;-56
2024/04/25 05:09:15;;;;;;;6.43;3.27;;;6.90;99.90;;;;;;5528472;25;20461;-56
2024/04/25 05:11:44;;;;;;;6.97;2.90;;;7.00;99.90;;;;;;5528055;25;20462;-56
2024/04/25 05:14:12;;;;;;;6.30;2.83;;;7.00;99.90;;;;;;5527671;25;20490;-56
2024/04/25 05:16:41;;;;;;;3.50;2.43;;;7.00;99.90;;;;;;5527476;25;20431;-57
2024/04/25 05:19:10;;;;;;;5.90;2.60;;;7.10;99.90;;;;;;5527326;25;20443;-56
2024/04/25 05:21:38;;;;;;;4.73;3.07;;;7.10;99.90;;;;;;5527412;25;20502;-56
2024/04/25 05:24:10;;;;;;;6.23;3.57;;;7.20;99.90;;;;;;5528006;25;20486;-56
2024/04/25 05:26:38;;;;;;;4.53;2.80;;;7.20;99.90;;;;;;5528316;25;20839;-56
2024/04/25 05:29:09;;;;;;;5.87;2.80;;;7.30;99.90;;;;;;5527991;25;20494;-56
2024/04/25 05:31:38;;;;;;;7.77;3.10;;;7.40;99.90;;;;;;5527782;25;20495;-56
2024/04/25 05:34:06;;;;;;;3.37;2.13;;;7.50;99.90;;;;;;5528309;25;20488;-56
2024/04/25 05:36:36;;;;;;;7.70;3.83;;;7.50;99.90;;;;;;5527784;25;20510;-56
2024/04/25 05:39:04;;;;;;;4.90;3.10;;;7.60;99.90;;;;;;5527850;25;20562;-56
2024/04/25 05:41:36;;;;;;;5.60;3.00;;;7.60;99.90;;;;;;5527496;25;20458;-56
2024/04/25 05:44:04;;;;;;;4.63;3.40;;;7.70;99.90;;;;;;5527985;25;20473;-56
2024/04/25 05:46:32;;;;;;;8.47;3.87;;;7.70;99.90;;;;;;5527803;25;20838;-56
2024/04/25 05:49:01;;;;;;;7.77;4.53;;;7.80;99.90;;;;;;5527571;25;20458;-56
2024/04/25 05:51:30;;;;;;;6.70;4.80;;;7.80;99.90;;;;;;5527523;25;20506;-56
2024/04/25 05:53:58;;;;;;;9.80;3.80;;;7.90;99.90;;;;;;5527598;25;20518;-56
2024/04/25 05:56:27;;;;;;;7.73;4.17;;;8.00;99.90;;;;;;5527612;25;20477;-56
2024/04/25 05:58:58;;;;;;;7.50;4.77;;;8.10;99.90;;;;;;5527759;25;20462;-56
2024/04/25 06:01:26;;;;;;;11.33;5.50;;;8.10;99.90;;;;;;5526713;25;20883;-56
2024/04/25 06:03:55;;;;;;;11.03;6.97;;;8.10;99.70;;;;;;5526301;25;20442;-56
2024/04/25 06:06:23;;;;;;;9.63;6.83;;;8.10;99.90;;;;;;5527520;25;20458;-56
2024/04/25 06:08:52;;;;;;;10.73;7.17;;;8.10;99.90;;;;;;5527477;25;20461;-56
2024/04/25 06:11:22;;;;;;;10.07;7.60;;;8.00;99.90;;;;;;5525890;25;20458;-56
2024/04/25 06:13:51;;;;;;;12.90;8.00;;;8.00;99.90;;;;;;5527086;25;20454;-56
2024/04/25 06:16:23;;;;;;;13.77;7.80;;;8.00;99.90;;;;;;5525328;25;20453;-56
2024/04/25 06:18:51;;;;;;;11.73;7.50;;;8.00;99.90;;;;;;5527595;25;20454;-56
2024/04/25 06:21:20;;;;;;;11.40;7.70;;;8.10;99.90;;;;;;5527000;25;20563;-56
2024/04/25 06:23:48;;;;;;;11.03;8.17;;;8.10;99.90;;;;;;5527162;25;20451;-56
2024/04/25 06:26:16;;;;;;;12.67;8.93;;;8.20;99.90;;;;;;5527005;25;20820;-56
2024/04/25 06:28:45;;;;;;;11.90;8.50;;;8.30;99.90;;;;;;5527279;25;20450;-57
2024/04/25 06:31:14;;;;;;;12.33;8.60;;;8.30;99.90;;;;;;5526812;25;20831;-56
2024/04/25 06:33:45;;;;;;;14.30;10.33;;;8.40;99.90;;;;;;5527141;25;20442;-55
2024/04/25 06:36:15;;;;;;;11.57;9.00;;;8.40;99.90;;;;;;5527254;26;20523;-56
2024/04/25 06:38:44;;;;;;;16.93;10.17;;;8.30;99.90;;;;;;5527032;25;20453;-56
2024/04/25 06:41:13;;;;;;;14.87;9.77;;;8.30;99.90;;;;;;5526946;25;20463;-56
2024/04/25 06:43:41;;;;;;;13.60;8.70;;;8.30;99.90;;;;;;5527008;25;20454;-56
2024/04/25 06:46:10;;;;;;;14.80;9.20;;;8.40;99.90;;;;;;5527049;25;21063;-56
2024/04/25 06:48:39;;;;;;;17.40;9.60;;;8.40;99.90;;;;;;5527705;25;20509;-57
2024/04/25 06:51:10;;;;;;;10.07;9.00;;;8.40;99.90;;;;;;5528415;25;20466;-56
2024/04/25 06:53:38;;;;;;;16.03;10.00;;;8.40;99.90;;;;;;5528604;25;20441;-56
2024/04/25 06:56:07;;;;;;;17.27;10.73;;;8.40;99.90;;;;;;5526905;25;20470;-56
2024/04/25 06:58:36;;;;;;;11.97;9.83;;;8.50;99.90;;;;;;5526649;25;20498;-55
2024/04/25 07:01:05;;;;;;;11.90;10.60;;;8.60;99.90;;;;;;5526734;25;20502;-56
2024/04/25 07:03:33;;;;;;;13.70;10.67;;;8.60;99.90;;;;;;5526082;25;20498;-56
2024/04/25 07:06:02;;;;;;;12.53;8.83;;;8.70;99.70;;;;;;5526850;25;20863;-55
2024/04/25 07:08:33;;;;;;;12.27;9.70;;;8.80;99.00;;;;;;5526648;25;20579;-56
2024/04/25 07:11:02;;;;;;;11.10;8.53;;;8.80;99.30;;;;;;5526395;25;20499;-56
2024/04/25 07:13:31;;;;;;;12.60;8.30;;;8.90;99.20;;;;;;5526562;25;20446;-55
2024/04/25 07:16:01;;;;;;;10.77;7.80;;;9.00;99.00;;;;;;5526374;25;20454;-55
2024/04/25 07:18:30;;;;;;;12.73;7.50;;;9.10;98.50;;;;;;5526544;25;20494;-56
2024/04/25 07:20:58;;;;;;;13.23;7.10;;;9.10;98.20;;;;;;5526240;25;20841;-55
2024/04/25 07:23:27;;;;;;;10.43;7.03;;;9.30;98.10;;;;;;5526348;25;20462;-55
2024/04/25 07:25:58;;;;;;;9.90;7.47;;;9.30;97.70;;;;;;5526410;25;20454;-56
2024/04/25 07:28:26;;;;;;;13.57;7.27;;;9.40;97.60;;;;;;5525965;25;20450;-55
2024/04/25 07:30:55;;;;;;;12.87;7.53;;;9.50;97.80;;;;;;5526008;25;20580;-55
2024/04/25 07:33:23;;;;;;;11.73;6.73;;;9.50;97.10;;;;;;5526170;25;21024;-55
2024/04/25 07:35:51;;;;;;;17.00;7.97;;;9.50;96.60;;;;;;5526289;25;20454;-55
2024/04/25 07:38:20;;;;;;;12.70;6.87;;;9.50;96.80;;;;;;5526167;25;21116;-56
2024/04/25 07:40:48;;;;;;;10.50;6.37;;;9.50;96.80;;;;;;5525950;25;20506;-55
2024/04/25 07:43:19;;;;;;;9.43;7.00;;;9.40;96.70;;;;;;5526295;25;20453;-56
2024/04/25 07:45:48;;;;;;;12.23;7.97;;;9.50;96.90;;;;;;5525893;25;20889;-56
2024/04/25 07:48:16;;;;;;;13.53;8.50;;;9.60;97.10;;;;;;5525890;25;20566;-55
2024/04/25 07:50:45;;;;;;;12.77;7.37;;;9.60;96.60;;;;;;5525430;25;20827;-55
2024/04/25 07:53:13;;;;;;;10.43;7.20;;;9.60;96.00;;;;;;5525905;25;20449;-55
2024/04/25 07:55:42;;;;;;;9.33;7.87;;;9.70;96.00;;;;;;5525631;25;20987;-55
2024/04/25 07:58:11;;;;;;;8.63;6.70;;;9.80;96.10;;;;;;5525590;25;20452;-55
2024/04/25 08:00:42;;;;;;;12.77;7.03;;;9.90;96.40;;;;;;5525800;25;20458;-56
2024/04/25 08:03:11;;;;;;;9.90;6.80;;;10.00;95.70;;;;;;5525753;25;20438;-56
2024/04/25 08:05:39;;;;;;;7.90;6.80;;;10.20;95.10;;;;;;5525473;25;20601;-55
2024/04/25 08:08:08;;;;;;;8.80;6.63;;;10.20;95.00;;;;;;5525598;25;20498;-55
2024/04/25 08:10:38;;;;;;;10.10;7.17;;;10.30;94.20;;;;;;5525150;25;20461;-55
2024/04/25 08:13:07;;;;;;;10.60;7.30;;;10.30;94.30;;;;;;5525806;25;20502;-56
2024/04/25 08:15:37;;;;;;;11.13;7.30;;;10.40;94.30;;;;;;5525222;25;20533;-55
2024/04/25 08:18:08;;;;;;;10.83;6.97;;;10.50;93.80;;;;;;5525532;25;20494;-56
2024/04/25 08:20:37;;;;;;;10.67;7.50;;;10.60;94.00;;;;;;5525583;25;20490;-55
2024/04/25 08:23:06;;;;;;;8.80;6.10;;;10.60;93.50;;;;;;5525810;25;20528;-56
2024/04/25 08:25:34;;;;;;;13.70;6.87;;;10.80;93.50;;;;;;5525783;25;20810;-55
2024/04/25 08:28:03;;;;;;;12.73;6.90;;;10.90;93.60;;;;;;5525883;25;21007;-56
2024/04/25 08:30:31;;;;;;;8.70;6.60;;;11.20;92.90;;;;;;5525505;25;20555;-55
2024/04/25 08:33:00;;;;;;;14.73;7.80;;;11.40;92.50;;;;;;5525384;25;20474;-56
2024/04/25 08:35:31;;;;;;;7.00;6.07;;;11.50;92.10;;;;;;5525624;25;20559;-56
2024/04/25 08:38:00;;;;;;;9.33;5.33;;;11.60;92.10;;;;;;5525319;25;20450;-55
2024/04/25 08:40:28;;;;;;;10.50;5.90;;;11.90;91.90;;;;;;5527792;25;20503;-55
2024/04/25 08:42:57;;;;;;;8.60;4.20;;;12.10;90.40;;;;;;5528916;25;20827;-56
2024/04/25 08:45:26;;;;;;;11.00;5.80;;;12.20;89.70;;;;;;5528561;25;20551;-55
2024/04/25 08:47:58;;;;;;;6.23;3.30;;;12.20;86.30;;;;;;5528459;25;20491;-55
2024/04/25 08:50:31;;;;;;;8.20;3.70;;;12.20;86.10;;;;;;5528738;25;20975;-55
2024/04/25 08:53:02;;;;;;;5.70;3.60;;;12.20;86.00;;;;;;5528490;25;20563;-55
2024/04/25 08:55:31;;;;;;;9.73;3.83;;;12.20;85.70;;;;;;5528193;25;20498;-55
2024/04/25 08:58:01;;;;;;;5.63;3.90;;;12.20;86.40;;;;;;5528173;25;20567;-55
2024/04/25 09:00:29;;;;;;;9.93;4.10;;;12.30;87.20;;;;;;5528178;25;20457;-55
2024/04/25 09:03:00;;;;;;;5.00;4.20;;;12.30;85.40;;;;;;5528278;25;20570;-55
2024/04/25 09:05:34;;;;;;;6.83;4.07;;;12.40;83.80;;;;;;5528369;25;20454;-55
2024/04/25 09:08:03;;;;;;;4.27;3.33;;;12.50;84.70;;;;;;5528520;25;20510;-55
2024/04/25 09:10:40;;;;;;;6.63;3.30;;;12.60;85.70;;;;;;5527960;25;20454;-56
2024/04/25 09:13:08;;;;;;;5.60;2.87;;;12.80;82.30;;;;;;5528534;25;20509;-56
2024/04/25 09:15:37;;;;;;;13.67;4.50;;;13.00;82.60;;;;;;5528167;25;20442;-55
2024/04/25 09:18:06;;;;;;;7.70;3.10;;;13.30;82.30;;;;;;5528273;25;20493;-56
2024/04/25 09:20:37;;;;;;;5.50;2.00;;;13.40;78.80;;;;;;5528142;25;20789;-56
2024/04/25 09:23:05;;;;;;;4.77;2.30;;;13.60;77.20;;;;;;5528221;25;20450;-56
2024/04/25 09:25:34;;;;;;;5.07;2.40;;;13.60;76.10;;;;;;5527944;25;20461;-55
2024/04/25 09:28:03;;;;;;;6.87;3.07;;;13.70;77.00;;;;;;5527901;25;20458;-55
2024/04/25 09:30:32;;;;;;;8.97;2.60;;;13.60;74.60;;;;;;5527907;25;20442;-55
2024/04/25 09:33:04;;;;;;;8.30;3.13;;;13.40;75.70;;;;;;5527792;25;20571;-56
2024/04/25 09:35:32;;;;;;;4.27;2.33;;;13.40;76.10;;;;;;5528026;25;20551;-55
2024/04/25 09:38:04;;;;;;;6.77;2.50;;;13.30;75.70;;;;;;5527753;25;21040;-55
2024/04/25 09:40:32;;;;;;;7.00;3.10;;;13.20;75.70;;;;;;5527516;25;20466;-55
2024/04/25 09:43:01;;;;;;;3.43;1.87;;;13.20;78.40;;;;;;5527918;25;20466;-56
2024/04/25 09:45:32;;;;;;;3.30;2.00;;;13.20;76.00;;;;;;5527641;25;20453;-56
2024/04/25 09:48:05;;;;;;;8.50;3.13;;;13.30;74.70;;;;;;5527868;25;20987;-56
2024/04/25 09:50:39;;;;;;;5.20;2.13;;;13.50;75.30;;;;;;5526320;25;20497;-55
2024/04/25 09:53:14;;;;;;;4.47;2.70;;;13.90;75.10;;;;;;5527580;25;20476;-56
2024/04/25 09:55:45;;;;;;;3.80;2.53;;;14.30;74.30;;;;;;5527784;25;20442;-55
2024/04/25 09:58:17;;;;;;;6.23;2.60;;;14.70;73.30;;;;;;5527799;25;20491;-56
2024/04/25 10:00:46;;;;;;;6.20;3.50;;;15.20;70.50;;;;;;5527455;25;20449;-56
2024/04/25 10:03:17;;;;;;;7.30;3.00;;;15.50;68.70;;;;;;5527538;25;20556;-56
2024/04/25 10:05:46;;;;;;;3.37;1.83;;;15.50;65.90;;;;;;5527488;25;21035;-56
2024/04/25 10:08:17;;;;;;;6.90;2.10;;;15.20;65.50;;;;;;5527598;25;20466;-56
2024/04/25 10:10:46;;;;;;;6.60;2.13;;;14.70;61.90;;;;;;5527129;25;21032;-55
2024/04/25 10:13:19;;;;;;;11.63;2.80;;;14.30;65.30;;;;;;5527586;25;20564;-56
2024/04/25 10:15:52;;;;;;;11.43;2.97;;;13.90;68.00;;;;;;5527313;25;20502;-55
2024/04/25 10:18:20;;;;;;;4.40;1.97;;;13.80;69.40;;;;;;5527174;25;20490;-56
2024/04/25 10:20:59;;;;;;;6.63;2.20;;;13.70;66.80;;;;;;5527267;25;20470;-55
2024/04/25 10:23:36;;;;;;;6.43;2.27;;;13.50;67.30;;;;;;5527210;25;20563;-55
2024/04/25 10:26:04;;;;;;;9.00;3.40;;;13.10;70.00;;;;;;5527273;25;20450;-55
2024/04/25 10:28:34;;;;;;;3.37;2.20;;;13.00;70.10;;;;;;5527111;25;20564;-56
2024/04/25 10:31:02;;;;;;;4.20;2.63;;;13.20;70.80;;;;;;5526974;25;20462;-55
2024/04/25 10:33:32;;;;;;;5.77;2.53;;;13.30;69.80;;;;;;5527036;25;20458;-56
2024/04/25 10:36:09;;;;;;;2.80;2.03;;;13.40;69.00;;;;;;5527122;25;20502;-56
2024/04/25 10:38:40;;;;;;;5.03;2.80;;;13.50;69.20;;;;;;5526810;25;20459;-56
2024/04/25 10:41:09;;;;;;;4.03;2.50;;;13.80;70.30;;;;;;5526946;25;20574;-56
2024/04/25 10:43:47;;;;;;;10.67;3.47;;;13.90;69.60;;;;;;5526697;25;20568;-55
2024/04/25 10:46:16;;;;;;;4.60;3.10;;;13.90;66.50;;;;;;5527261;25;20446;-56
2024/04/25 10:48:45;;;;;;;6.00;2.80;;;13.90;68.10;;;;;;5526762;25;20446;-55
2024/04/25 10:51:15;;;;;;;4.10;2.67;;;13.80;64.60;;;;;;5526962;25;20530;-56
2024/04/25 10:53:46;;;;;;;7.33;3.80;;;13.80;67.50;;;;;;5526905;25;20790;-55
2024/04/25 10:56:16;;;;;;;8.23;2.83;;;13.70;66.60;;;;;;5526992;25;20450;-56
2024/04/25 10:58:51;;;;;;;7.60;3.30;;;13.70;66.00;;;;;;5526977;25;20462;-56
2024/04/25 11:01:24;;;;;;;6.50;2.63;;;13.50;64.70;;;;;;5526816;25;20511;-55
2024/04/25 11:03:56;;;;;;;4.07;2.57;;;13.20;64.40;;;;;;5526436;25;20446;-55
2024/04/25 11:06:26;;;;;;;5.00;2.50;;;13.20;64.70;;;;;;5526830;25;20498;-55
2024/04/25 11:08:57;;;;;;;8.17;2.50;;;13.10;66.10;;;;;;5525612;25;20454;-55
2024/04/25 11:11:27;;;;;;;7.33;2.90;;;12.90;65.20;;;;;;5526219;25;20567;-55
2024/04/25 11:13:56;;;;;;;4.93;2.67;;;12.80;66.10;;;;;;5526160;25;20450;-57
2024/04/25 11:16:24;;;;;;;5.90;2.70;;;12.70;65.10;;;;;;5526262;25;20442;-56
2024/04/25 11:18:54;;;;;;;3.83;2.83;;;12.60;64.60;;;;;;5526235;25;20446;-56
2024/04/25 11:21:24;;;;;;;3.47;2.00;;;12.60;65.90;;;;;;5526287;25;20597;-56
2024/04/25 11:23:52;;;;;;;6.50;1.93;;;12.50;66.30;;;;;;5525500;25;20446;-56
2024/04/25 11:26:24;;;;;;;2.53;1.90;;;12.40;66.30;;;;;;5525911;25;20563;-57
2024/04/25 11:28:52;;;;;;;5.00;2.97;;;12.40;64.30;;;;;;5526066;25;20548;-57
2024/04/25 11:31:21;;;;;;;5.60;2.67;;;12.50;66.60;;;;;;5526111;25;20827;-56
2024/04/25 11:33:49;;;;;;;3.80;2.20;;;12.70;67.70;;;;;;5525584;25;20462;-58
2024/04/25 11:36:25;;;;;;;3.73;2.40;;;12.80;66.00;;;;;;5526146;25;20561;-56
2024/04/25 11:38:54;;;;;;;5.63;2.20;;;12.90;65.20;;;;;;5526313;25;20481;-56
2024/04/25 11:41:26;;;;;;;3.33;2.40;;;12.80;64.30;;;;;;5526134;25;20574;-56
2024/04/25 11:43:56;;;;;;;3.47;2.13;;;12.90;66.60;;;;;;5525185;25;20450;-56
2024/04/25 11:46:24;;;;;;;4.70;2.60;;;12.80;67.60;;;;;;5524698;25;20454;-56
2024/04/25 11:48:56;;;;;;;5.80;2.97;;;12.90;68.00;;;;;;5525408;25;20458;-56
2024/04/25 11:51:24;;;;;;;4.20;2.60;;;12.80;67.60;;;;;;5525330;25;20506;-56
2024/04/25 11:53:53;;;;;;;5.40;3.10;;;12.80;67.30;;;;;;5524482;25;20895;-56
2024/04/25 11:56:25;;;;;;;9.57;3.53;;;12.90;66.60;;;;;;5525541;25;20588;-56
2024/04/25 11:58:54;;;;;;;3.90;2.77;;;12.90;65.20;;;;;;5525649;25;20870;-56
2024/04/25 12:01:23;;;;;;;5.63;3.20;;;12.90;66.30;;;;;;5524417;25;20468;-56
2024/04/25 12:03:51;;;;;;;9.53;2.87;;;13.00;66.50;;;;;;5524268;25;20438;-56
2024/04/25 12:06:21;;;;;;;5.47;3.17;;;13.20;66.70;;;;;;5524629;25;20442;-56
2024/04/25 12:08:50;;;;;;;6.83;2.60;;;13.40;67.80;;;;;;5524258;25;20457;-56
2024/04/25 12:11:18;;;;;;;6.20;2.63;;;13.80;67.10;;;;;;5524577;25;20473;-56
2024/04/25 12:13:49;;;;;;;3.37;2.00;;;14.10;63.80;;;;;;5524047;25;20976;-56
2024/04/25 12:16:18;;;;;;;5.53;2.23;;;14.30;63.80;;;;;;5529103;25;20873;-57
2024/04/25 12:18:46;;;;;;;4.50;2.63;;;14.50;62.60;;;;;;5528962;25;20510;-56
2024/04/25 12:21:15;;;;;;;3.13;2.40;;;14.50;62.90;;;;;;5529107;25;20478;-56
2024/04/25 12:23:43;;;;;;;3.27;2.07;;;14.50;60.00;;;;;;5528243;25;20442;-56
2024/04/25 12:26:12;;;;;;;5.30;2.30;;;14.40;58.60;;;;;;5528410;25;20563;-56
2024/04/25 12:28:40;;;;;;;2.80;2.10;;;14.50;58.60;;;;;;5528281;25;20559;-56
2024/04/25 12:31:12;;;;;;;3.97;2.20;;;14.70;58.10;;;;;;5528682;25;21119;-56
2024/04/25 12:33:41;;;;;;;7.63;1.83;;;14.90;57.20;;;;;;5528405;25;20466;-56
2024/04/25 12:36:10;;;;;;;8.40;2.13;;;15.00;55.20;;;;;;5527964;25;20502;-56
2024/04/25 12:38:38;;;;;;;5.13;1.87;;;14.90;54.10;;;;;;5528125;25;20446;-60
2024/04/25 12:41:07;;;;;;;5.20;2.33;;;14.80;54.50;;;;;;5528502;25;20526;-56
2024/04/25 12:43:35;;;;;;;5.23;1.90;;;14.70;53.20;;;;;;5528264;25;20501;-56
2024/04/25 12:46:04;;;;;;;7.80;1.93;;;14.60;53.00;;;;;;5527835;25;20462;-56
2024/04/25 12:48:35;;;;;;;3.57;1.87;;;14.30;51.80;;;;;;5528196;25;20555;-56
2024/04/25 12:51:03;;;;;;;3.63;1.70;;;14.10;53.30;;;;;;5527591;25;20473;-56
2024/04/25 12:53:32;;;;;;;3.30;1.83;;;13.90;53.60;;;;;;5527387;25;20438;-56
2024/04/25 12:56:00;;;;;;;3.90;2.37;;;13.90;53.10;;;;;;5528290;25;20558;-56
2024/04/25 12:58:29;;;;;;;5.60;2.67;;;13.80;53.50;;;;;;5527524;25;21031;-56
2024/04/25 13:00:57;;;;;;;5.20;3.10;;;13.80;54.80;;;;;;5527562;25;20446;-56
2024/04/25 13:03:26;;;;;;;2.80;2.27;;;13.90;55.20;;;;;;5527772;25;20559;-56
2024/04/25 13:05:57;;;;;;;3.93;2.17;;;14.10;54.30;;;;;;5527317;25;20848;-56